Time;durP1;ratioP1;P1;durP2;ratioP2;P2;SDS_P1;SDS_P2;PMS_P1;PMS_P2;Temp;Humidity;BMP_temperature;BMP_pressure;BME280_temperature;BME280_humidity;BME280_pressure;Samples;Min_cycle;Max_cycle;Signal;HPM_P1;HPM_P2
2021/12/02 00:02:21;;;;;;;9.60;1.50;;;;;;;;;;5034179;28;20493;-26
2021/12/02 00:04:48;;;;;;;12.20;1.50;;;;;;;;;;5034283;28;20454;-21
2021/12/02 00:07:14;;;;;;;13.55;1.77;;;;;;;;;;5034659;28;20387;-23
2021/12/02 00:09:41;;;;;;;15.30;2.28;;;;;;;;;;5034144;28;20033;-25
2021/12/02 00:12:08;;;;;;;7.57;1.75;;;;;;;;;;5034232;28;20119;-25
2021/12/02 00:14:45;;;;;;;;;;;;;;;;;;5034897;28;20049;-25
2021/12/02 00:22:31;;;;;;;11.27;1.95;;;;;;;;;;5034121;28;20044;-26
2021/12/02 00:25:02;;;;;;;9.88;1.42;;;;;;;;;;5034000;28;20047;-22
2021/12/02 00:27:29;;;;;;;9.85;2.03;;;;;;;;;;5033957;28;20026;-22
2021/12/02 00:29:56;;;;;;;;;;;;;;;;;;5034657;28;20044;-25
2021/12/02 00:32:23;;;;;;;12.52;1.70;;;;;;;;;;5033960;28;20012;-24
2021/12/02 00:34:50;;;;;;;9.93;1.48;;;;;;;;;;5033899;28;20108;-19
2021/12/02 00:37:16;;;;;;;11.67;2.10;;;;;;;;;;5033927;28;20025;-20
2021/12/02 00:39:42;;;;;;;14.43;2.43;;;;;;;;;;5033945;28;20030;-22
2021/12/02 00:42:09;;;;;;;7.45;1.48;;;;;;;;;;5033875;28;20112;-23
2021/12/02 00:44:38;;;;;;;12.63;1.80;;;;;;;;;;5033814;28;20029;-23
2021/12/02 00:47:04;;;;;;;12.30;1.75;;;;;;;;;;5035809;28;20029;-26
2021/12/02 00:49:30;;;;;;;11.23;1.98;;;;;;;;;;5037875;28;20096;-21
2021/12/02 00:51:58;;;;;;;8.48;1.58;;;;;;;;;;5037661;28;20026;-20
2021/12/02 00:54:27;;;;;;;10.98;2.10;;;;;;;;;;5037828;28;20048;-20
2021/12/02 00:56:53;;;;;;;17.23;2.42;;;;;;;;;;5037428;28;20029;-24
2021/12/02 00:59:21;;;;;;;13.55;2.53;;;;;;;;;;5037542;28;20083;-25
2021/12/02 01:01:49;;;;;;;10.40;1.88;;;;;;;;;;5037424;28;20099;-24
2021/12/02 01:04:19;;;;;;;9.18;1.52;;;;;;;;;;5037278;28;20037;-21
2021/12/02 01:06:45;;;;;;;15.52;1.85;;;;;;;;;;5037583;28;20419;-22
2021/12/02 01:09:14;;;;;;;12.27;2.00;;;;;;;;;;5037273;28;20336;-20
2021/12/02 01:11:41;;;;;;;6.03;1.13;;;;;;;;;;5038234;28;20025;-21
2021/12/02 01:14:08;;;;;;;9.77;1.45;;;;;;;;;;5037732;28;20447;-20
2021/12/02 01:16:35;;;;;;;7.85;1.65;;;;;;;;;;5037363;28;20021;-21
2021/12/02 01:19:02;;;;;;;7.07;1.35;;;;;;;;;;5037039;28;20097;-20
2021/12/02 01:21:29;;;;;;;7.35;1.10;;;;;;;;;;5037074;28;20033;-23
2021/12/02 01:23:58;;;;;;;7.95;1.50;;;;;;;;;;5037049;28;20053;-22
2021/12/02 01:26:25;;;;;;;9.98;1.35;;;;;;;;;;5037215;28;20057;-22
2021/12/02 01:28:52;;;;;;;10.63;1.65;;;;;;;;;;5036763;28;20026;-19
2021/12/02 01:31:18;;;;;;;7.25;2.35;;;;;;;;;;5036899;28;20021;-22
2021/12/02 01:33:46;;;;;;;9.67;1.20;;;;;;;;;;5037084;28;20359;-22
2021/12/02 01:36:13;;;;;;;12.55;1.65;;;;;;;;;;5036644;28;20340;-20
2021/12/02 01:38:39;;;;;;;7.18;1.33;;;;;;;;;;5036711;28;20036;-21
2021/12/02 01:41:05;;;;;;;10.75;1.40;;;;;;;;;;5036925;28;20048;-21
2021/12/02 01:43:41;;;;;;;8.53;1.53;;;;;;;;;;5036699;28;20033;-21
2021/12/02 01:46:08;;;;;;;12.20;1.95;;;;;;;;;;5036830;28;20462;-25
2021/12/02 01:48:38;;;;;;;11.45;2.22;;;;;;;;;;5036519;28;20336;-20
2021/12/02 01:51:08;;;;;;;12.02;1.60;;;;;;;;;;5036711;28;20036;-20
2021/12/02 01:53:36;;;;;;;10.00;1.90;;;;;;;;;;5036341;28;20054;-21
2021/12/02 01:56:13;;;;;;;10.18;1.40;;;;;;;;;;5036445;28;20443;-20
2021/12/02 01:58:46;;;;;;;12.27;1.95;;;;;;;;;;5036300;28;20362;-19
2021/12/02 02:01:24;;;;;;;9.48;1.52;;;;;;;;;;5036165;28;20081;-23
2021/12/02 02:03:51;;;;;;;9.23;2.13;;;;;;;;;;5036602;28;20358;-23
2021/12/02 02:06:28;;;;;;;6.93;1.60;;;;;;;;;;5018809;28;20033;-20
2021/12/02 02:08:56;;;;;;;12.88;2.38;;;;;;;;;;5035995;28;20534;-21
2021/12/02 02:11:24;;;;;;;9.90;1.42;;;;;;;;;;5036665;28;20029;-21
2021/12/02 02:13:51;;;;;;;6.03;1.08;;;;;;;;;;5036330;28;20049;-23
2021/12/02 02:16:17;;;;;;;7.47;1.40;;;;;;;;;;5036062;28;20019;-22
2021/12/02 02:18:44;;;;;;;10.98;2.00;;;;;;;;;;5035951;28;20111;-20
2021/12/02 02:21:14;;;;;;;8.32;1.42;;;;;;;;;;5018366;28;20493;-22
2021/12/02 02:23:51;;;;;;;11.23;1.60;;;;;;;;;;5036391;28;20171;-22
2021/12/02 02:26:30;;;;;;;8.38;1.83;;;;;;;;;;5036080;28;20407;-20
2021/12/02 02:28:57;;;;;;;11.15;1.45;;;;;;;;;;5036171;28;20108;-20
2021/12/02 02:31:23;;;;;;;6.70;1.55;;;;;;;;;;5035675;28;20025;-20
2021/12/02 02:33:51;;;;;;;11.10;1.30;;;;;;;;;;5035734;28;20367;-23
2021/12/02 02:36:21;;;;;;;9.90;1.42;;;;;;;;;;5035595;28;20032;-24
2021/12/02 02:38:57;;;;;;;6.07;1.20;;;;;;;;;;5018009;28;20033;-20
2021/12/02 02:41:26;;;;;;;6.78;1.58;;;;;;;;;;5035491;28;20037;-20
2021/12/02 02:43:55;;;;;;;9.25;1.63;;;;;;;;;;5035792;28;20462;-19
2021/12/02 02:46:23;;;;;;;7.00;1.60;;;;;;;;;;5035370;28;20049;-20
2021/12/02 02:48:49;;;;;;;7.20;1.20;;;;;;;;;;5035532;28;20057;-22
2021/12/02 02:51:15;;;;;;;8.00;1.80;;;;;;;;;;5017941;28;20037;-23
2021/12/02 02:53:42;;;;;;;4.50;1.27;;;;;;;;;;5035383;28;20446;-20
2021/12/02 02:56:15;;;;;;;7.43;1.20;;;;;;;;;;5035335;28;20427;-22
2021/12/02 02:59:00;;;;;;;7.13;1.45;;;;;;;;;;5035343;28;20033;-19
2021/12/02 03:04:43;;;;;;;;;;;;;;;;;;4956107;29;20039;-21
2021/12/02 03:07:20;;;;;;;6.43;1.55;;;;;;;;;;4955374;29;19906;-23
2021/12/02 03:09:56;;;;;;;6.38;1.52;;;;;;;;;;5003881;28;20053;-24
2021/12/02 03:12:31;;;;;;;8.88;1.50;;;;;;;;;;5035270;28;20421;-23
2021/12/02 03:17:28;;;;;;;5.95;1.30;;;;;;;;;;5034894;28;20041;-19
2021/12/02 03:19:54;;;;;;;8.00;1.70;;;;;;;;;;5034913;28;20026;-19
2021/12/02 03:22:20;;;;;;;10.20;1.85;;;;;;;;;;5035128;28;20024;-21
2021/12/02 03:24:47;;;;;;;4.60;1.10;;;;;;;;;;5034760;28;20021;-24
2021/12/02 03:27:13;;;;;;;6.53;0.93;;;;;;;;;;5034932;28;20036;-21
2021/12/02 03:29:40;;;;;;;5.53;1.05;;;;;;;;;;5034707;28;20048;-22
2021/12/02 03:32:07;;;;;;;5.07;1.20;;;;;;;;;;5034667;28;20468;-22
2021/12/02 03:34:34;;;;;;;7.95;1.13;;;;;;;;;;5034908;28;20017;-26
2021/12/02 03:37:00;;;;;;;6.60;1.50;;;;;;;;;;5034595;28;20485;-19
2021/12/02 03:39:26;;;;;;;9.88;1.73;;;;;;;;;;5034597;28;20029;-20
2021/12/02 03:41:54;;;;;;;4.70;0.93;;;;;;;;;;5034458;28;20034;-21
2021/12/02 03:44:21;;;;;;;4.45;0.80;;;;;;;;;;5034488;28;20266;-21
2021/12/02 03:46:48;;;;;;;2.58;0.80;;;;;;;;;;5034261;28;20036;-19
2021/12/02 03:49:14;;;;;;;7.03;0.93;;;;;;;;;;5034596;28;20029;-23
2021/12/02 03:51:40;;;;;;;7.88;1.58;;;;;;;;;;5034915;28;20271;-25
2021/12/02 03:54:07;;;;;;;3.20;0.73;;;;;;;;;;5034533;28;20437;-24
2021/12/02 03:56:33;;;;;;;5.57;0.85;;;;;;;;;;5034955;28;20036;-25
2021/12/02 03:59:00;;;;;;;3.67;1.02;;;;;;;;;;5034568;28;20470;-24
2021/12/02 04:01:27;;;;;;;5.35;0.95;;;;;;;;;;5034164;28;20389;-22
2021/12/02 04:03:53;;;;;;;4.68;1.00;;;;;;;;;;5034582;28;20315;-21
2021/12/02 04:06:20;;;;;;;3.30;1.07;;;;;;;;;;5034294;28;20104;-25
2021/12/02 04:08:57;;;;;;;6.30;0.90;;;;;;;;;;5016684;28;20292;-26
2021/12/02 04:11:39;;;;;;;4.75;1.08;;;;;;;;;;5034553;28;20097;-21
2021/12/02 04:16:55;;;;;;;9.88;1.40;;;;;;;;;;5034088;28;20072;-24
2021/12/02 04:19:22;;;;;;;6.70;1.33;;;;;;;;;;5034424;28;20029;-24
2021/12/02 04:21:48;;;;;;;6.90;1.15;;;;;;;;;;5037349;28;20059;-22
2021/12/02 04:24:15;;;;;;;9.05;1.58;;;;;;;;;;5038143;28;20053;-25
2021/12/02 04:26:43;;;;;;;6.55;1.80;;;;;;;;;;5038079;28;20033;-25
2021/12/02 04:29:10;;;;;;;5.32;1.42;;;;;;;;;;5020402;28;20040;-25
2021/12/02 04:31:36;;;;;;;6.28;1.55;;;;;;;;;;5038000;28;20029;-23
2021/12/02 04:34:02;;;;;;;6.60;1.58;;;;;;;;;;5038245;28;20087;-25
2021/12/02 04:36:29;;;;;;;11.70;1.70;;;;;;;;;;5037992;28;20048;-24
2021/12/02 04:38:55;;;;;;;8.82;1.60;;;;;;;;;;5037642;28;20029;-25
2021/12/02 04:41:21;;;;;;;3.43;1.03;;;;;;;;;;5020521;28;20072;-21
2021/12/02 04:43:48;;;;;;;5.28;1.48;;;;;;;;;;5037771;28;20032;-21
2021/12/02 04:46:14;;;;;;;9.07;1.88;;;;;;;;;;5037881;28;20498;-25
2021/12/02 04:48:41;;;;;;;8.65;1.58;;;;;;;;;;5037632;28;20052;-23
2021/12/02 04:51:07;;;;;;;7.70;1.20;;;;;;;;;;5037541;28;20029;-21
2021/12/02 04:53:34;;;;;;;10.03;1.67;;;;;;;;;;5037126;28;20091;-23
2021/12/02 04:56:00;;;;;;;5.40;1.08;;;;;;;;;;5037574;28;20033;-24
2021/12/02 04:58:26;;;;;;;8.45;1.55;;;;;;;;;;5037251;28;20049;-27
2021/12/02 05:03:36;;;;;;;6.55;1.42;;;;;;;;;;5301230;22;20055;-24
2021/12/02 05:06:02;;;;;;;7.18;1.45;;;;;;;;;;5039538;28;20456;-24
2021/12/02 05:08:29;;;;;;;9.47;2.00;;;;;;;;;;5057041;28;20029;-25
2021/12/02 05:10:57;;;;;;;;;;;;;;;;;;5057402;28;20024;-25
2021/12/02 05:13:24;;;;;;;8.13;1.20;;;;;;;;;;5056588;28;20011;-25
2021/12/02 05:15:51;;;;;;;9.27;1.93;;;;;;;;;;5056461;28;20025;-25
2021/12/02 05:18:18;;;;;;;8.90;1.73;;;;;;;;;;5056808;28;20096;-25
2021/12/02 05:20:45;;;;;;;13.35;2.13;;;;;;;;;;5039550;28;20039;-26
2021/12/02 05:23:12;;;;;;;9.95;1.30;;;;;;;;;;5056523;28;20028;-25
2021/12/02 05:25:43;;;;;;;7.85;1.75;;;;;;;;;;5056818;28;20100;-25
2021/12/02 05:28:10;;;;;;;8.52;1.77;;;;;;;;;;5056294;28;20021;-25
2021/12/02 05:30:36;;;;;;;7.93;1.37;;;;;;;;;;5056272;28;20095;-25
2021/12/02 05:33:04;;;;;;;10.03;1.60;;;;;;;;;;5055482;28;20028;-25
2021/12/02 05:35:32;;;;;;;10.35;2.08;;;;;;;;;;5056027;28;20393;-25
2021/12/02 05:37:58;;;;;;;7.88;1.40;;;;;;;;;;5056441;28;20047;-25
2021/12/02 05:40:25;;;;;;;8.38;1.95;;;;;;;;;;5038573;28;20108;-24
2021/12/02 05:42:53;;;;;;;9.88;2.08;;;;;;;;;;5056254;28;20021;-25
2021/12/02 05:45:20;;;;;;;8.45;2.00;;;;;;;;;;5056175;28;20154;-25
2021/12/02 05:47:47;;;;;;;10.17;1.60;;;;;;;;;;5056328;28;20037;-25
2021/12/02 05:50:13;;;;;;;18.70;3.30;;;;;;;;;;5055996;28;20055;-25
2021/12/02 05:52:40;;;;;;;15.48;2.13;;;;;;;;;;5055715;28;20365;-25
2021/12/02 05:55:08;;;;;;;23.83;2.83;;;;;;;;;;5055847;28;20326;-24
2021/12/02 05:57:35;;;;;;;8.05;1.23;;;;;;;;;;5037621;28;20033;-25
2021/12/02 06:00:03;;;;;;;7.88;2.10;;;;;;;;;;5055460;28;20052;-25
2021/12/02 06:02:30;;;;;;;20.25;2.65;;;;;;;;;;5055279;28;20053;-26
2021/12/02 06:04:57;;;;;;;21.27;2.88;;;;;;;;;;5038327;28;20469;-25
2021/12/02 06:07:23;;;;;;;13.52;2.78;;;;;;;;;;5055894;28;20457;-26
2021/12/02 06:09:53;;;;;;;11.43;2.38;;;;;;;;;;5055484;28;20021;-25
2021/12/02 06:12:20;;;;;;;8.07;1.92;;;;;;;;;;5055604;28;20108;-25
2021/12/02 06:14:47;;;;;;;14.45;1.58;;;;;;;;;;5037861;28;20025;-27
2021/12/02 06:17:13;;;;;;;15.27;1.88;;;;;;;;;;5055536;28;20112;-27
2021/12/02 06:19:39;;;;;;;19.90;2.53;;;;;;;;;;5055883;28;20107;-26
2021/12/02 06:22:09;;;;;;;6.45;1.65;;;;;;;;;;5055621;28;20029;-27
2021/12/02 06:24:54;;;;;;;16.48;2.47;;;;;;;;;;5037920;28;20029;-26
2021/12/02 06:27:21;;;;;;;13.68;2.53;;;;;;;;;;5055476;28;20033;-26
2021/12/02 06:29:47;;;;;;;12.88;1.75;;;;;;;;;;5055438;28;20392;-23
2021/12/02 06:32:15;;;;;;;17.85;1.63;;;;;;;;;;5055444;28;20025;-24
2021/12/02 06:34:43;;;;;;;16.48;2.28;;;;;;;;;;5037467;28;20462;-24
2021/12/02 06:37:09;;;;;;;28.98;3.05;;;;;;;;;;5055581;28;20031;-23
2021/12/02 06:39:37;;;;;;;14.70;2.17;;;;;;;;;;5055202;28;20031;-26
2021/12/02 06:42:03;;;;;;;14.68;2.10;;;;;;;;;;5054618;28;20055;-27
2021/12/02 06:44:30;;;;;;;14.52;2.63;;;;;;;;;;5053605;28;20092;-24
2021/12/02 06:46:57;;;;;;;23.08;2.30;;;;;;;;;;5036735;28;20119;-27
2021/12/02 06:49:23;;;;;;;;;;;;;;;;;;5036997;28;20047;-27
2021/12/02 06:51:50;;;;;;;9.05;1.67;;;;;;;;;;5054893;28;19951;-25
2021/12/02 06:54:16;;;;;;;8.03;2.03;;;;;;;;;;5054973;28;20088;-26
2021/12/02 06:56:43;;;;;;;8.85;1.50;;;;;;;;;;5054949;28;20024;-26
2021/12/02 06:59:10;;;;;;;22.70;3.53;;;;;;;;;;5054835;28;20055;-27
2021/12/02 07:01:36;;;;;;;10.93;2.03;;;;;;;;;;5036854;28;20484;-26
2021/12/02 07:04:03;;;;;;;11.83;2.23;;;;;;;;;;5049867;28;20147;-26
2021/12/02 07:06:29;;;;;;;18.55;2.08;;;;;;;;;;5053395;28;20127;-26
2021/12/02 07:08:56;;;;;;;15.63;2.50;;;;;;;;;;5053418;28;20037;-26
2021/12/02 07:11:22;;;;;;;20.93;2.53;;;;;;;;;;5054270;28;20263;-26
2021/12/02 07:13:50;;;;;;;24.30;2.60;;;;;;;;;;5053768;28;20301;-26
2021/12/02 07:16:24;;;;;;;16.30;2.08;;;;;;;;;;5091671;27;20442;-30
2021/12/02 07:18:55;;;;;;;17.50;2.60;;;;;;;;;;5090002;28;20032;-29
2021/12/02 07:21:21;;;;;;;18.38;2.30;;;;;;;;;;5090955;28;20028;-26
2021/12/02 07:23:48;;;;;;;11.40;1.70;;;;;;;;;;5090986;28;20032;-30
2021/12/02 07:26:16;;;;;;;19.67;3.75;;;;;;;;;;5090924;28;20028;-28
2021/12/02 07:28:45;;;;;;;14.55;2.22;;;;;;;;;;5090865;28;20114;-27
2021/12/02 07:31:11;;;;;;;11.65;1.85;;;;;;;;;;5091163;28;20443;-30
2021/12/02 07:33:39;;;;;;;10.75;2.10;;;;;;;;;;5090582;28;20032;-34
2021/12/02 07:36:05;;;;;;;18.58;2.35;;;;;;;;;;5090756;28;20052;-32
2021/12/02 07:41:42;;;;;;;19.42;2.85;;;;;;;;;;5090931;28;20457;-29
2021/12/02 07:44:11;;;;;;;14.20;2.17;;;;;;;;;;5091000;28;20029;-27
2021/12/02 07:46:39;;;;;;;15.20;2.30;;;;;;;;;;5091117;28;20085;-35
2021/12/02 07:49:06;;;;;;;15.15;2.15;;;;;;;;;;5090478;28;20024;-33
2021/12/02 07:51:34;;;;;;;10.15;1.85;;;;;;;;;;5090127;28;20088;-30
2021/12/02 07:54:02;;;;;;;15.98;1.88;;;;;;;;;;5090866;28;20028;-30
2021/12/02 07:56:29;;;;;;;11.63;1.52;;;;;;;;;;5091034;28;20024;-30
2021/12/02 07:58:56;;;;;;;13.80;2.30;;;;;;;;;;5090723;28;20032;-29
2021/12/02 08:01:23;;;;;;;17.10;3.63;;;;;;;;;;5091030;28;20029;-29
2021/12/02 08:03:51;;;;;;;13.38;2.08;;;;;;;;;;5090978;28;20359;-27
2021/12/02 08:06:18;;;;;;;12.25;1.73;;;;;;;;;;5089520;28;20115;-32
2021/12/02 08:08:46;;;;;;;20.58;2.75;;;;;;;;;;5089976;28;20127;-30
2021/12/02 08:11:13;;;;;;;18.30;2.50;;;;;;;;;;5089595;28;20032;-29
2021/12/02 08:13:40;;;;;;;14.93;2.38;;;;;;;;;;5090572;28;20028;-26
2021/12/02 08:16:07;;;;;;;15.98;3.10;;;;;;;;;;5090444;28;20078;-34
2021/12/02 08:18:34;;;;;;;17.08;2.08;;;;;;;;;;5090570;28;20020;-26
2021/12/02 08:21:01;;;;;;;14.93;2.70;;;;;;;;;;5090438;28;20035;-29
2021/12/02 08:23:28;;;;;;;21.15;3.60;;;;;;;;;;5090496;28;20027;-27
2021/12/02 08:25:56;;;;;;;22.52;3.10;;;;;;;;;;5087177;28;20028;-26
2021/12/02 08:31:32;;;;;;;18.20;1.90;;;;;;;;;;5077252;28;20074;-30
2021/12/02 08:33:58;;;;;;;22.48;2.80;;;;;;;;;;5076803;28;20024;-32
2021/12/02 08:36:28;;;;;;;23.38;3.30;;;;;;;;;;5076739;28;20035;-30
2021/12/02 08:38:56;;;;;;;19.55;2.58;;;;;;;;;;5075227;28;20089;-33
2021/12/02 08:41:23;;;;;;;17.98;2.05;;;;;;;;;;5075887;28;20363;-27
2021/12/02 08:43:50;;;;;;;26.48;3.33;;;;;;;;;;5076356;28;20032;-32
2021/12/02 08:46:21;;;;;;;24.50;3.13;;;;;;;;;;5076219;28;20028;-29
2021/12/02 08:48:51;;;;;;;22.98;2.90;;;;;;;;;;5075264;28;20024;-31
2021/12/02 08:51:17;;;;;;;18.73;2.58;;;;;;;;;;5075522;28;20044;-27
2021/12/02 08:53:44;;;;;;;11.30;2.35;;;;;;;;;;5075394;28;20035;-30
2021/12/02 08:56:11;;;;;;;12.07;2.70;;;;;;;;;;5076502;28;20389;-31
2021/12/02 08:58:38;;;;;;;15.52;2.60;;;;;;;;;;5076328;28;20025;-28
2021/12/02 09:01:04;;;;;;;11.98;1.95;;;;;;;;;;5076741;28;20412;-33
2021/12/02 09:03:35;;;;;;;18.17;3.15;;;;;;;;;;5076492;28;20086;-30
2021/12/02 09:06:03;;;;;;;13.75;2.28;;;;;;;;;;5075914;28;20025;-27
2021/12/02 09:08:31;;;;;;;26.08;3.40;;;;;;;;;;5076145;28;20098;-30
2021/12/02 09:10:59;;;;;;;42.85;4.40;;;;;;;;;;5075687;28;20030;-29
2021/12/02 09:13:25;;;;;;;19.75;2.40;;;;;;;;;;5075632;28;20048;-27
2021/12/02 09:15:52;;;;;;;21.73;2.72;;;;;;;;;;5075563;28;20424;-32
2021/12/02 09:18:18;;;;;;;20.52;2.88;;;;;;;;;;5075882;28;20035;-31
2021/12/02 09:20:46;;;;;;;16.20;2.67;;;;;;;;;;5075820;28;20125;-29
2021/12/02 09:23:13;;;;;;;;;;;;;;;;;;5074747;28;20347;-29
2021/12/02 09:25:40;;;;;;;22.63;3.35;;;;;;;;;;5075556;28;20304;-34
2021/12/02 09:28:07;;;;;;;;;;;;;;;;;;5075689;28;20371;-29
2021/12/02 09:30:35;;;;;;;;;;;;;;;;;;5075484;28;19968;-27
2021/12/02 09:33:05;;;;;;;23.05;2.53;;;;;;;;;;5075136;28;20287;-34
2021/12/02 09:35:32;;;;;;;29.02;3.95;;;;;;;;;;5074092;28;20481;-31
2021/12/02 09:38:00;;;;;;;13.30;2.17;;;;;;;;;;5073174;28;20020;-28
2021/12/02 09:40:27;;;;;;;21.50;2.88;;;;;;;;;;5075611;28;20040;-27
2021/12/02 09:42:54;;;;;;;21.35;2.88;;;;;;;;;;5074951;28;20016;-28
2021/12/02 09:45:21;;;;;;;13.13;1.70;;;;;;;;;;5073801;28;20094;-31
2021/12/02 09:47:49;;;;;;;20.45;2.67;;;;;;;;;;5075022;28;20393;-32
2021/12/02 09:50:23;;;;;;;19.50;2.53;;;;;;;;;;5074962;28;20082;-27
2021/12/02 09:52:51;;;;;;;14.68;2.35;;;;;;;;;;5074922;28;20025;-32
2021/12/02 09:58:07;;;;;;;21.52;2.78;;;;;;;;;;5074536;28;20098;-28
2021/12/02 10:00:44;;;;;;;16.65;3.05;;;;;;;;;;5074620;28;20392;-28
2021/12/02 10:06:05;;;;;;;19.67;2.58;;;;;;;;;;5074385;28;20025;-31
2021/12/02 10:08:35;;;;;;;16.35;2.20;;;;;;;;;;5074288;28;20043;-32
2021/12/02 10:11:07;;;;;;;15.73;2.65;;;;;;;;;;5074225;28;20116;-27
2021/12/02 10:13:44;;;;;;;11.10;1.90;;;;;;;;;;5074582;28;20036;-24
2021/12/02 10:16:32;;;;;;;12.75;2.38;;;;;;;;;;5073796;28;20116;-27
2021/12/02 10:19:09;;;;;;;19.73;3.38;;;;;;;;;;5074323;28;20031;-27
2021/12/02 10:21:44;;;;;;;14.52;2.08;;;;;;;;;;5074197;28;20528;-29
2021/12/02 10:24:12;;;;;;;13.18;2.40;;;;;;;;;;5074276;28;20100;-28
2021/12/02 10:26:43;;;;;;;18.35;2.28;;;;;;;;;;5074158;28;20020;-33
2021/12/02 10:29:18;;;;;;;17.60;2.42;;;;;;;;;;5073788;28;20027;-30
2021/12/02 10:31:48;;;;;;;16.80;1.92;;;;;;;;;;5073645;28;20028;-29
2021/12/02 10:34:18;;;;;;;11.07;2.72;;;;;;;;;;5073875;28;20027;-27
2021/12/02 10:36:45;;;;;;;13.35;2.10;;;;;;;;;;5073730;28;20099;-30
2021/12/02 10:39:27;;;;;;;18.40;3.00;;;;;;;;;;5073467;28;20021;-27
2021/12/02 10:42:09;;;;;;;30.00;3.15;;;;;;;;;;5073648;28;20044;-32
2021/12/02 10:44:39;;;;;;;28.70;3.40;;;;;;;;;;5074186;28;20037;-27
2021/12/02 10:47:07;;;;;;;23.25;2.20;;;;;;;;;;5074031;28;20451;-30
2021/12/02 10:49:34;;;;;;;12.63;2.72;;;;;;;;;;5073738;28;20435;-29
2021/12/02 10:52:03;;;;;;;17.95;2.88;;;;;;;;;;5073817;28;20032;-29
2021/12/02 10:54:34;;;;;;;21.48;2.58;;;;;;;;;;5073798;28;20017;-26
2021/12/02 10:57:07;;;;;;;16.02;2.42;;;;;;;;;;5073835;28;20029;-28
2021/12/02 10:59:43;;;;;;;28.42;3.53;;;;;;;;;;5074495;28;20415;-29
2021/12/02 11:02:29;;;;;;;22.95;2.88;;;;;;;;;;5073656;28;20371;-28
2021/12/02 11:05:24;;;;;;;17.92;2.38;;;;;;;;;;5072594;28;20037;-31
2021/12/02 11:07:55;;;;;;;20.98;2.80;;;;;;;;;;5073530;28;20043;-29
2021/12/02 11:10:22;;;;;;;20.25;2.90;;;;;;;;;;5072601;28;20363;-26
2021/12/02 11:12:50;;;;;;;22.45;4.97;;;;;;;;;;5073409;28;20362;-28
2021/12/02 11:15:18;;;;;;;18.23;2.45;;;;;;;;;;5072768;28;20396;-30
2021/12/02 11:17:58;;;;;;;25.52;4.18;;;;;;;;;;5073291;28;20025;-28
2021/12/02 11:20:27;;;;;;;19.10;2.92;;;;;;;;;;5073718;28;20024;-31
2021/12/02 11:22:55;;;;;;;20.55;2.67;;;;;;;;;;5073869;28;20408;-27
2021/12/02 11:25:22;;;;;;;16.83;2.65;;;;;;;;;;5073704;28;20020;-28
2021/12/02 11:27:50;;;;;;;17.15;2.75;;;;;;;;;;5073589;28;20070;-27
2021/12/02 11:30:20;;;;;;;17.60;2.22;;;;;;;;;;5073169;28;20055;-29
2021/12/02 11:32:56;;;;;;;24.40;4.47;;;;;;;;;;5073701;28;20370;-29
2021/12/02 11:35:31;;;;;;;18.63;3.95;;;;;;;;;;5073356;28;20029;-31
2021/12/02 11:38:01;;;;;;;29.23;3.13;;;;;;;;;;5072272;28;20177;-32
2021/12/02 11:40:29;;;;;;;26.48;4.13;;;;;;;;;;5073858;28;20021;-28
2021/12/02 11:42:56;;;;;;;22.95;2.67;;;;;;;;;;5073089;28;20024;-29
2021/12/02 11:45:25;;;;;;;22.75;3.08;;;;;;;;;;5072680;28;20035;-31
2021/12/02 11:47:53;;;;;;;24.70;2.97;;;;;;;;;;5072168;28;20112;-31
2021/12/02 11:50:19;;;;;;;;;;;;;;;;;;5072664;28;20028;-32
2021/12/02 11:52:47;;;;;;;21.77;2.33;;;;;;;;;;5073268;28;19987;-31
2021/12/02 11:55:18;;;;;;;26.90;3.83;;;;;;;;;;5073536;28;20302;-29
2021/12/02 11:57:46;;;;;;;24.20;3.22;;;;;;;;;;5073587;28;20031;-31
2021/12/02 12:00:16;;;;;;;28.73;3.85;;;;;;;;;;5055550;28;20102;-29
2021/12/02 12:02:47;;;;;;;28.25;3.72;;;;;;;;;;5075097;28;20415;-29
2021/12/02 12:05:14;;;;;;;26.52;3.70;;;;;;;;;;5076788;28;20029;-28
2021/12/02 12:07:48;;;;;;;18.58;3.10;;;;;;;;;;5075718;28;20340;-32
2021/12/02 12:10:17;;;;;;;26.73;3.00;;;;;;;;;;5076755;28;20042;-29
2021/12/02 12:12:43;;;;;;;23.17;3.33;;;;;;;;;;5076217;28;20030;-27
2021/12/02 12:15:31;;;;;;;28.38;2.65;;;;;;;;;;5075947;28;20048;-30
2021/12/02 12:17:58;;;;;;;18.30;2.97;;;;;;;;;;5076760;28;20075;-30
2021/12/02 12:20:48;;;;;;;29.52;3.45;;;;;;;;;;5076527;28;20021;-29
2021/12/02 12:23:35;;;;;;;16.98;3.35;;;;;;;;;;5070561;28;20033;-28
2021/12/02 12:26:02;;;;;;;;;;;;;;;;;;5076642;28;20112;-37
2021/12/02 12:28:28;;;;;;;20.25;3.03;;;;;;;;;;5076599;28;19919;-27
2021/12/02 12:31:06;;;;;;;16.98;2.38;;;;;;;;;;5076550;28;20103;-29
2021/12/02 12:33:40;;;;;;;17.15;1.92;;;;;;;;;;5076355;28;20067;-30
2021/12/02 12:36:14;;;;;;;20.13;2.65;;;;;;;;;;5076026;28;20052;-29
2021/12/02 12:38:42;;;;;;;22.08;4.07;;;;;;;;;;5076357;28;20020;-27
2021/12/02 12:41:13;;;;;;;20.02;2.63;;;;;;;;;;5076092;28;20577;-33
2021/12/02 12:43:50;;;;;;;18.48;2.55;;;;;;;;;;5076060;28;20134;-31
2021/12/02 12:46:25;;;;;;;22.48;2.75;;;;;;;;;;5076189;28;20036;-27
2021/12/02 12:48:53;;;;;;;25.08;2.85;;;;;;;;;;5076206;28;20025;-29
2021/12/02 12:51:26;;;;;;;18.25;2.35;;;;;;;;;;5075741;28;20024;-32
2021/12/02 12:53:53;;;;;;;191.75;14.65;;;;;;;;;;5076115;28;20034;-29
2021/12/02 12:56:26;;;;;;;24.13;2.65;;;;;;;;;;5075850;28;20036;-27
2021/12/02 12:59:07;;;;;;;21.25;2.92;;;;;;;;;;5075895;28;20065;-30
2021/12/02 13:01:34;;;;;;;46.20;4.43;;;;;;;;;;5075850;28;20092;-27
2021/12/02 13:04:06;;;;;;;16.70;3.20;;;;;;;;;;5076038;28;20078;-29
2021/12/02 13:06:36;;;;;;;18.58;3.00;;;;;;;;;;5074828;28;20027;-30
2021/12/02 13:09:05;;;;;;;18.10;3.22;;;;;;;;;;5076352;28;20025;-26
2021/12/02 13:11:33;;;;;;;19.55;2.92;;;;;;;;;;5075757;28;20024;-30
2021/12/02 13:14:01;;;;;;;22.92;3.28;;;;;;;;;;5075497;28;20431;-33
2021/12/02 13:16:37;;;;;;;19.70;3.35;;;;;;;;;;5075406;28;20435;-29
2021/12/02 13:19:11;;;;;;;43.10;5.43;;;;;;;;;;5076049;28;20344;-26
2021/12/02 13:21:42;;;;;;;32.70;3.42;;;;;;;;;;5075885;28;20035;-32
2021/12/02 13:24:10;;;;;;;14.93;2.20;;;;;;;;;;5075594;28;20036;-31
2021/12/02 13:26:47;;;;;;;30.25;3.00;;;;;;;;;;5075590;28;20029;-29
2021/12/02 13:29:16;;;;;;;26.73;2.90;;;;;;;;;;5075698;28;20024;-26
2021/12/02 13:32:04;;;;;;;29.90;3.22;;;;;;;;;;5075658;28;20016;-27
2021/12/02 13:34:33;;;;;;;27.50;3.75;;;;;;;;;;5075464;28;20028;-26
2021/12/02 13:37:02;;;;;;;26.75;3.10;;;;;;;;;;5075289;28;20063;-28
2021/12/02 13:39:30;;;;;;;26.98;3.33;;;;;;;;;;5073947;28;20449;-28
2021/12/02 13:42:02;;;;;;;29.25;4.20;;;;;;;;;;5075132;28;20485;-29
2021/12/02 13:44:33;;;;;;;25.35;3.38;;;;;;;;;;5073968;28;20029;-28
2021/12/02 13:47:00;;;;;;;29.00;3.00;;;;;;;;;;5073879;28;20043;-35
2021/12/02 13:49:32;;;;;;;29.43;3.83;;;;;;;;;;5074619;28;20159;-31
2021/12/02 13:54:59;;;;;;;21.80;2.95;;;;;;;;;;5074449;28;20105;-27
2021/12/02 13:57:29;;;;;;;30.15;3.22;;;;;;;;;;5074652;28;20049;-30
2021/12/02 13:59:56;;;;;;;25.88;3.30;;;;;;;;;;5074626;28;20055;-28
2021/12/02 14:02:24;;;;;;;22.35;2.83;;;;;;;;;;5074702;28;20035;-29
2021/12/02 14:04:52;;;;;;;18.63;2.72;;;;;;;;;;5074812;28;20027;-32
2021/12/02 14:07:21;;;;;;;21.60;2.60;;;;;;;;;;5074960;28;20107;-34
2021/12/02 14:09:48;;;;;;;18.85;2.15;;;;;;;;;;5074660;28;20170;-30
2021/12/02 14:12:15;;;;;;;14.13;2.58;;;;;;;;;;5074670;28;20028;-32
2021/12/02 14:15:00;;;;;;;14.27;2.38;;;;;;;;;;5074596;28;20040;-33
2021/12/02 14:17:26;;;;;;;22.10;2.10;;;;;;;;;;5075261;28;20459;-29
2021/12/02 14:20:14;;;;;;;15.17;2.33;;;;;;;;;;5075041;28;20351;-33
2021/12/02 14:22:47;;;;;;;16.67;3.13;;;;;;;;;;5075071;28;20405;-29
2021/12/02 14:25:14;;;;;;;22.40;3.03;;;;;;;;;;5073064;28;20477;-30
2021/12/02 14:27:40;;;;;;;31.20;3.55;;;;;;;;;;5074464;28;20032;-30
2021/12/02 14:30:15;;;;;;;15.88;2.42;;;;;;;;;;5073382;28;20451;-32
2021/12/02 14:32:43;;;;;;;35.20;3.50;;;;;;;;;;5073324;28;20032;-33
2021/12/02 14:35:14;;;;;;;33.25;2.95;;;;;;;;;;5074248;28;20114;-30
2021/12/02 14:37:42;;;;;;;25.25;3.75;;;;;;;;;;5074310;28;20094;-31
2021/12/02 14:40:10;;;;;;;30.52;4.35;;;;;;;;;;5074227;28;20036;-28
2021/12/02 14:42:36;;;;;;;32.83;4.40;;;;;;;;;;5074431;28;20370;-32
2021/12/02 14:45:19;;;;;;;30.77;3.53;;;;;;;;;;5074189;28;20152;-26
2021/12/02 14:47:47;;;;;;;33.38;2.97;;;;;;;;;;5074470;28;20031;-31
2021/12/02 14:50:15;;;;;;;25.63;2.90;;;;;;;;;;5074310;28;20025;-30
2021/12/02 14:52:47;;;;;;;20.73;2.55;;;;;;;;;;5073018;28;20111;-31
2021/12/02 14:55:21;;;;;;;26.85;4.05;;;;;;;;;;5072865;28;20066;-30
2021/12/02 14:57:48;;;;;;;32.60;3.60;;;;;;;;;;5073756;28;20467;-29
2021/12/02 15:00:18;;;;;;;32.60;3.45;;;;;;;;;;5073979;28;20099;-32
2021/12/02 15:02:46;;;;;;;31.35;4.50;;;;;;;;;;5072799;28;20448;-28
2021/12/02 15:05:22;;;;;;;31.92;3.70;;;;;;;;;;5073835;28;20028;-26
2021/12/02 15:07:53;;;;;;;31.98;3.67;;;;;;;;;;5073779;28;20036;-29
2021/12/02 15:10:23;;;;;;;29.83;4.25;;;;;;;;;;5074302;28;20028;-31
2021/12/02 15:12:50;;;;;;;17.67;3.25;;;;;;;;;;5073839;28;20093;-30
2021/12/02 15:15:22;;;;;;;24.55;2.92;;;;;;;;;;5072598;28;20064;-28
2021/12/02 15:17:56;;;;;;;28.75;4.47;;;;;;;;;;5074199;28;20021;-27
2021/12/02 15:20:34;;;;;;;31.67;3.65;;;;;;;;;;5073750;28;20033;-27